Volk Field
KVOK : rendu visible

Aérodrome :











RETROUVEZ-NOUS SUR...

 
LOGIN :

S'inscrire | Disclaimer

   EN    FR    IT 

 









Légende :    VFR   VFR Marginal   IFR   IFR Intensif   IFR Très Intensif
Visi : 
Plafond : 
>= 8 km
>= 3000ft
5 à 8 km
1000 à 3000 ft
1500m à 5 km
500 à 1000 ft
800 à 1500m
200 à 500 ft
< 800m
< 200 ft
Symboles :   Orages  Brouillard  Fortes neiges  Fortes précipitations  Vent > 20 kt






- Altitude de l'aérodrome : 912 ft


KVOK - Volk Field

DERNIER METAR :
  • 280456Z AUTO 00000KT 10SM FEW065 19/ A2990 RMK AO2 SLP124 $

METARs EXPIRÉS :
  • 280356Z AUTO 00000KT 10SM FEW090 19/ A2991 RMK AO2 SLP128 $
  • 280256Z AUTO 28003KT 9SM CLR 19/ A2991 RMK AO2 SLP128 50008 $

TAF AMD TAF KVOK
Valide du 27 à 20h jusqu'au 28 à 23h UTC


272056Z 2720/2823 19009KT 9000 -SHRA BKN030 QNH2985INS
TEMPO 2721/2801 19020G25KT 8000 -TSRA BKN030CB OVC045
BECMG 2817/2818 VRB06KT 9999 NSW SCT020 QNH2988INS TX28/2720Z TN18/2817Z LAST NO AMDS AFT 2721 NEXT 2809
FIR KZAU / Amérique du Nord



MET'MAP, la Météo Aéronautique d'un coup d'oeil ! - Copyright ORBIFLY Décembre 2007 - Disclaimer

ORBIFLY MET'MAP TEAM :

Programmation & Développement : Alexandra Zaïnal
Sur une idée originale de : Baudouin d'Aumeries
Assistance à la programmation : Marc-Olivier Méhu
Soutien technique & logistique : Manuel Goepfert

Contact : metmap@orbifly.com




SOURCES & CREDITS :

   NOAA       Earth
Advisory